Time;durP1;ratioP1;P1;durP2;ratioP2;P2;SDS_P1;SDS_P2;PMS_P1;PMS_P2;Temp;Humidity;BMP_temperature;BMP_pressure;BME280_temperature;BME280_humidity;BME280_pressure;Samples;Min_cycle;Max_cycle;Signal;HPM_P1;HPM_P2
2023/10/14 00:00:27;;;;;;;8.40;2.20;;;;;;;16.97;44.70;96979.47;10462074;28;20490;-71
2023/10/14 00:06:07;;;;;;;6.75;2.42;;;;;;;17.01;44.51;96983.16;10439270;28;20522;-71
2023/10/14 00:11:35;;;;;;;9.50;2.58;;;;;;;17.02;44.17;96972.59;10464429;28;20057;-72
2023/10/14 00:16:56;;;;;;;6.88;2.40;;;;;;;17.00;44.02;96970.44;10466614;28;20119;-72
2023/10/14 00:22:20;;;;;;;11.32;2.28;;;;;;;16.92;44.00;96967.38;10447363;28;20137;-71
2023/10/14 00:27:42;;;;;;;10.07;2.47;;;;;;;16.85;44.12;96965.75;10461306;28;20052;-71
2023/10/14 00:33:03;;;;;;;6.90;2.20;;;;;;;16.78;44.08;96953.53;10460047;28;20163;-71
2023/10/14 00:38:24;;;;;;;7.03;2.42;;;;;;;16.72;44.12;96961.13;10460905;28;20120;-72
2023/10/14 00:43:45;;;;;;;5.95;2.40;;;;;;;16.62;44.27;96957.94;10460644;28;20140;-71
2023/10/14 00:49:10;;;;;;;8.75;2.72;;;;;;;16.47;44.75;96953.97;10458825;28;20069;-71
2023/10/14 00:59:55;;;;;;;7.68;2.28;;;;;;;16.19;45.08;96945.31;10444927;28;20125;-71
2023/10/14 01:05:19;;;;;;;12.52;2.13;;;;;;;16.08;45.24;96944.25;10424055;28;20054;-71
2023/10/14 01:10:42;;;;;;;13.95;3.00;;;;;;;15.98;45.62;96936.19;10390908;28;20100;-71
2023/10/14 01:16:08;;;;;;;9.93;3.10;;;;;;;15.93;45.64;96936.72;10403148;28;20595;-71
2023/10/14 01:21:31;;;;;;;7.40;2.38;;;;;;;15.89;45.82;96934.47;10402997;28;20113;-70
2023/10/14 01:27:00;;;;;;;5.70;2.13;;;;;;;15.88;46.03;96927.41;10389472;28;20073;-72
2023/10/14 01:37:58;;;;;;;10.40;2.05;;;;;;;16.16;45.25;96916.38;10416648;28;20187;-71
2023/10/14 01:43:24;;;;;;;10.13;2.45;;;;;;;16.60;44.18;96922.00;10417089;28;20164;-72
2023/10/14 01:48:45;;;;;;;6.35;1.85;;;;;;;17.07;42.77;96929.75;10416754;28;20124;-71
2023/10/14 01:54:09;;;;;;;7.88;1.80;;;;;;;17.35;42.26;96915.75;10388514;28;20134;-70
2023/10/14 01:59:30;;;;;;;5.38;1.88;;;;;;;17.57;41.73;96929.75;10401196;28;20121;-71
2023/10/14 02:04:56;;;;;;;10.93;1.92;;;;;;;17.73;41.15;96929.50;10418633;28;20052;-71
2023/10/14 02:10:17;;;;;;;4.47;1.33;;;;;;;17.87;40.49;96923.50;10442390;28;20459;-71
2023/10/14 02:15:38;;;;;;;4.22;1.58;;;;;;;17.98;40.36;96917.44;10442001;28;20117;-71
2023/10/14 02:21:11;;;;;;;5.75;1.63;;;;;;;17.97;40.13;96913.19;10442088;28;20506;-71
2023/10/14 02:26:33;;;;;;;5.47;1.77;;;;;;;18.07;39.86;96903.53;10441991;28;20120;-71
2023/10/14 02:31:54;;;;;;;6.05;1.77;;;;;;;18.10;39.69;96907.84;10455724;28;20116;-71
2023/10/14 02:37:15;;;;;;;7.45;1.88;;;;;;;18.16;39.98;96916.47;10441811;28;20567;-71
2023/10/14 02:42:36;;;;;;;9.45;1.92;;;;;;;18.22;39.48;96910.97;10456499;28;20448;-71
2023/10/14 02:48:01;;;;;;;9.55;2.00;;;;;;;18.30;39.26;96911.88;10441442;28;20052;-71
2023/10/14 02:53:27;;;;;;;4.45;2.15;;;;;;;18.33;39.42;96907.00;10441966;28;20063;-71
2023/10/14 02:58:48;;;;;;;7.38;1.90;;;;;;;18.35;39.61;96912.00;10441998;28;20120;-71
2023/10/14 03:04:11;;;;;;;9.55;2.20;;;;;;;18.44;39.16;96899.50;10456021;28;20101;-71
2023/10/14 03:09:32;;;;;;;5.22;2.35;;;;;;;18.53;39.13;96884.16;10441344;28;20068;-70
2023/10/14 03:14:53;;;;;;;7.00;1.95;;;;;;;18.55;39.12;96887.75;10462015;28;20121;-71
2023/10/14 03:26:13;;;;;;;5.78;1.80;;;;;;;18.65;38.85;96878.09;10438805;28;20486;-70
2023/10/14 03:31:35;;;;;;;5.90;1.73;;;;;;;18.68;38.75;96868.97;10463466;28;20505;-71
2023/10/14 03:37:16;;;;;;;7.80;1.65;;;;;;;18.72;39.01;96865.50;10463206;28;20073;-71
2023/10/14 03:42:52;;;;;;;6.22;2.10;;;;;;;18.73;38.80;96864.13;10450814;28;20144;-71
2023/10/14 03:48:13;;;;;;;5.65;1.77;;;;;;;18.67;38.94;96869.66;10450305;28;20049;-71
2023/10/14 03:53:34;;;;;;;10.70;2.10;;;;;;;18.54;39.16;96858.06;10447611;28;20126;-71
2023/10/14 03:58:57;;;;;;;8.05;2.05;;;;;;;18.50;39.46;96863.59;10461429;28;20531;-71
2023/10/14 04:04:18;;;;;;;8.57;1.92;;;;;;;18.43;39.61;96859.22;10447674;28;20083;-71
2023/10/14 04:09:43;;;;;;;7.03;1.95;;;;;;;18.42;39.90;96852.13;10446986;28;20076;-70
2023/10/14 04:20:46;;;;;;;7.75;2.30;;;;;;;18.53;39.88;96838.94;10433739;28;20258;-71
2023/10/14 04:26:11;;;;;;;4.57;1.60;;;;;;;18.54;39.65;96843.94;10431595;28;20064;-71
2023/10/14 04:31:39;;;;;;;5.95;2.10;;;;;;;18.58;39.83;96846.13;10461245;28;20065;-70
2023/10/14 04:37:07;;;;;;;4.32;1.90;;;;;;;18.61;40.00;96841.94;10460758;28;20494;-71
2023/10/14 04:42:42;;;;;;;5.55;1.95;;;;;;;18.62;39.81;96845.47;10445768;28;20077;-73
2023/10/14 04:48:05;;;;;;;8.82;1.88;;;;;;;18.60;40.14;96841.22;10447801;28;20128;-70
2023/10/14 04:53:26;;;;;;;5.63;2.00;;;;;;;18.61;40.29;96844.75;10445297;28;20529;-71
2023/10/14 04:58:52;;;;;;;7.18;2.08;;;;;;;18.59;40.43;96853.19;10445131;28;20463;-71
2023/10/14 05:04:13;;;;;;;4.20;1.85;;;;;;;18.57;40.40;96833.38;10445130;28;20124;-71
2023/10/14 05:09:39;;;;;;;4.88;1.75;;;;;;;18.51;40.64;96825.47;10458661;28;20479;-71
2023/10/14 05:15:10;;;;;;;3.45;1.70;;;;;;;18.46;40.60;96823.97;10444245;28;20482;-71
2023/10/14 05:26:27;;;;;;;7.63;2.28;;;;;;;18.41;41.38;96842.19;10432784;28;20084;-72
2023/10/14 05:31:49;;;;;;;7.15;2.03;;;;;;;18.57;41.62;96839.03;10443800;28;20083;-72
2023/10/14 05:37:11;;;;;;;7.30;2.17;;;;;;;18.69;41.83;96844.25;10443321;28;20115;-71
2023/10/14 05:42:32;;;;;;;5.75;2.03;;;;;;;18.77;41.99;96850.78;10443249;28;20100;-72
2023/10/14 05:47:53;;;;;;;7.57;2.40;;;;;;;18.84;41.97;96840.34;10456997;28;20438;-72
2023/10/14 05:53:16;;;;;;;8.07;2.22;;;;;;;18.95;42.11;96850.47;10456965;28;20041;-71
2023/10/14 05:58:37;;;;;;;9.35;2.88;;;;;;;19.01;42.33;96850.59;10456678;28;20163;-72
2023/10/14 06:03:58;;;;;;;8.63;2.67;;;;;;;19.10;42.15;96851.44;10428818;28;20080;-71
2023/10/14 06:09:21;;;;;;;6.55;2.42;;;;;;;19.15;42.66;96841.66;10457454;28;20124;-71
2023/10/14 06:14:43;;;;;;;10.63;2.63;;;;;;;19.15;43.12;96841.66;10442545;28;20122;-71
2023/10/14 06:20:04;;;;;;;6.57;2.70;;;;;;;19.17;43.30;96850.19;10442036;28;20065;-71
2023/10/14 06:25:31;;;;;;;6.53;2.85;;;;;;;19.23;43.35;96864.47;10441994;28;20163;-71
2023/10/14 06:30:53;;;;;;;8.05;2.85;;;;;;;19.31;44.21;96847.66;10455869;28;20128;-71
2023/10/14 06:36:14;;;;;;;7.53;3.30;;;;;;;19.43;44.13;96861.31;10456903;28;20119;-71
2023/10/14 06:41:35;;;;;;;11.63;3.55;;;;;;;19.57;44.52;96860.88;10456381;28;20064;-70
2023/10/14 06:46:56;;;;;;;8.40;3.42;;;;;;;19.73;44.90;96867.53;10444071;28;20065;-71
2023/10/14 06:52:18;;;;;;;12.35;3.00;;;;;;;19.82;45.02;96845.75;10450215;28;20518;-71
2023/10/14 06:57:42;;;;;;;8.90;3.00;;;;;;;19.89;45.32;96852.25;10464685;28;20504;-71
2023/10/14 07:03:06;;;;;;;7.13;3.20;;;;;;;19.99;45.54;96847.47;10449093;28;20120;-71
2023/10/14 07:08:28;;;;;;;7.80;3.00;;;;;;;20.19;45.22;96844.25;10449915;28;20045;-70
2023/10/14 07:13:49;;;;;;;8.00;3.20;;;;;;;20.47;45.45;96852.47;10448933;28;20071;-70
2023/10/14 07:19:12;;;;;;;9.20;3.47;;;;;;;20.92;44.49;96858.03;10449186;28;20120;-71
2023/10/14 07:24:35;;;;;;;14.85;3.63;;;;;;;21.49;43.75;96858.72;10434981;28;20116;-70
2023/10/14 07:29:56;;;;;;;13.20;3.50;;;;;;;21.76;43.25;96840.56;10462394;28;20471;-70
2023/10/14 07:35:17;;;;;;;6.75;3.08;;;;;;;22.36;42.42;96862.38;10463338;28;20514;-70
2023/10/14 07:40:38;;;;;;;7.32;3.38;;;;;;;23.05;40.84;96856.41;10447952;28;20113;-71
2023/10/14 07:46:00;;;;;;;7.05;3.05;;;;;;;24.20;38.86;96841.72;10447938;28;20128;-71
2023/10/14 07:51:22;;;;;;;12.10;3.72;;;;;;;25.71;37.00;96852.72;10448143;28;20041;-70
2023/10/14 07:56:47;;;;;;;11.40;3.10;;;;;;;28.24;31.81;96848.50;10448126;28;20068;-71
2023/10/14 08:02:10;;;;;;;11.38;3.40;;;;;;;30.30;28.42;96821.31;10462442;28;20452;-71
2023/10/14 08:07:33;;;;;;;11.88;3.58;;;;;;;32.18;26.00;96836.88;10447102;28;20132;-71
2023/10/14 08:12:53;;;;;;;9.45;2.95;;;;;;;30.52;27.21;96851.72;10460960;28;20068;-71
2023/10/14 08:18:14;;;;;;;7.53;2.78;;;;;;;27.53;30.53;96849.53;10446597;28;20069;-71
2023/10/14 08:23:35;;;;;;;9.82;2.90;;;;;;;25.49;33.99;96864.97;10446487;28;20060;-71
2023/10/14 08:29:00;;;;;;;6.18;2.28;;;;;;;24.36;35.65;96854.56;10461522;28;20099;-71
2023/10/14 08:34:52;;;;;;;8.85;2.80;;;;;;;24.00;36.85;96853.13;10459993;28;20120;-70
2023/10/14 08:40:19;;;;;;;7.07;2.60;;;;;;;24.15;37.37;96856.69;10446197;28;20071;-71
2023/10/14 08:45:53;;;;;;;6.47;2.40;;;;;;;25.75;36.68;96866.97;10434124;28;20067;-70
2023/10/14 08:51:15;;;;;;;8.50;2.95;;;;;;;27.66;32.94;96862.28;10431542;28;20072;-71
2023/10/14 08:56:35;;;;;;;7.65;2.80;;;;;;;29.60;29.97;96861.78;10445264;28;20456;-71
2023/10/14 09:01:56;;;;;;;7.00;2.42;;;;;;;26.66;32.17;96833.38;10444857;28;20507;-71
2023/10/14 09:07:21;;;;;;;5.10;2.27;;;;;;;25.38;34.41;96867.16;10444635;28;20083;-71
2023/10/14 09:13:03;;;;;;;7.85;2.47;;;;;;;26.72;33.32;96884.81;10444752;28;20068;-71
2023/10/14 09:18:32;;;;;;;7.93;2.17;;;;;;;27.05;32.45;96913.88;10430617;28;20045;-70
2023/10/14 09:23:54;;;;;;;6.00;2.10;;;;;;;25.87;33.96;96904.06;10444209;28;20075;-71
2023/10/14 09:29:14;;;;;;;6.07;1.75;;;;;;;25.25;35.23;96874.34;10458943;28;20079;-71
2023/10/14 09:34:35;;;;;;;5.18;1.60;;;;;;;24.62;36.75;96865.25;10443787;28;20116;-71
2023/10/14 09:39:59;;;;;;;3.35;1.42;;;;;;;24.06;37.71;96889.47;10458523;28;20171;-71
2023/10/14 09:45:23;;;;;;;5.78;1.67;;;;;;;23.35;39.19;96916.31;10443806;28;20108;-71
2023/10/14 09:50:45;;;;;;;6.30;1.60;;;;;;;23.05;40.22;96922.56;10443057;28;20068;-71
2023/10/14 09:56:08;;;;;;;7.03;1.53;;;;;;;22.78;41.49;96920.97;10442685;28;20112;-70
2023/10/14 10:01:29;;;;;;;3.80;1.40;;;;;;;23.29;41.31;96924.84;10428790;28;20079;-71
2023/10/14 10:06:56;;;;;;;6.07;1.48;;;;;;;23.87;40.77;96943.59;10442240;28;20172;-70
2023/10/14 10:12:17;;;;;;;4.15;1.20;;;;;;;25.36;39.09;96924.28;10456799;28;20064;-71
2023/10/14 10:17:38;;;;;;;4.25;1.52;;;;;;;27.32;35.48;96942.94;10441796;28;20075;-72
2023/10/14 10:23:01;;;;;;;3.33;1.00;;;;;;;29.27;31.52;96951.53;10454707;28;20041;-71
2023/10/14 10:28:28;;;;;;;5.63;1.35;;;;;;;27.10;33.36;96961.78;10441875;28;20510;-71
2023/10/14 10:33:54;;;;;;;3.30;1.00;;;;;;;26.59;34.80;96952.22;10456332;28;20049;-71
2023/10/14 10:39:19;;;;;;;3.70;0.82;;;;;;;27.03;34.68;96963.28;10455934;28;20048;-71
2023/10/14 10:44:40;;;;;;;6.10;1.45;;;;;;;25.50;36.01;96942.81;10427895;28;20116;-70
2023/10/14 10:50:02;;;;;;;4.95;1.10;;;;;;;24.17;38.81;96960.03;10454721;28;20068;-70
2023/10/14 10:55:24;;;;;;;3.88;0.60;;;;;;;23.42;39.46;97059.44;10441161;28;20128;-70
2023/10/14 11:00:46;;;;;;;1.00;0.15;;;;;;;21.62;43.26;97070.44;10440821;28;20049;-70
2023/10/14 11:06:13;;;;;;;6.60;0.32;;;;;;;19.89;45.71;97073.84;10426920;28;20464;-70
2023/10/14 11:11:34;;;;;;;5.65;0.75;;;;;;;18.75;49.41;97088.22;10441671;28;20053;-70
2023/10/14 11:16:58;;;;;;;4.88;0.60;;;;;;;17.98;51.90;97115.09;10440208;28;20061;-70
2023/10/14 11:22:20;;;;;;;4.82;0.20;;;;;;;17.68;53.60;97125.47;10440417;28;20041;-70
2023/10/14 11:27:42;;;;;;;1.52;0.20;;;;;;;17.64;54.94;97122.53;10440391;28;20075;-70
2023/10/14 11:33:02;;;;;;;1.60;0.20;;;;;;;17.71;56.17;97118.53;10442564;28;20064;-70
2023/10/14 11:38:25;;;;;;;1.27;0.15;;;;;;;17.63;56.30;97126.72;10448000;28;20065;-69
2023/10/14 11:43:46;;;;;;;3.13;0.10;;;;;;;17.88;57.63;97136.66;10447883;28;20480;-71
2023/10/14 11:49:09;;;;;;;1.52;0.20;;;;;;;17.75;58.35;97135.56;10447385;28;20179;-70
2023/10/14 11:54:29;;;;;;;1.88;0.10;;;;;;;17.39;59.08;97144.38;10461980;28;20179;-71
2023/10/14 11:59:50;;;;;;;1.95;0.10;;;;;;;17.17;59.52;97135.16;10447048;28;20033;-70
2023/10/14 12:05:11;;;;;;;1.33;0.10;;;;;;;17.23;60.71;97135.38;10432876;28;20079;-71
2023/10/14 12:10:32;;;;;;;0.85;0.10;;;;;;;17.47;60.45;97149.53;10446770;28;20047;-71
2023/10/14 12:15:53;;;;;;;0.40;0.00;;;;;;;17.54;60.67;97151.16;10460614;28;20045;-71
2023/10/14 12:21:13;;;;;;;0.50;0.10;;;;;;;17.74;60.84;97148.25;10446180;28;20064;-71
2023/10/14 12:26:36;;;;;;;3.80;0.10;;;;;;;18.15;60.99;97153.00;10460087;28;20060;-71
2023/10/14 12:31:59;;;;;;;0.35;0.10;;;;;;;19.77;60.77;97160.63;10446217;28;20114;-72
2023/10/14 12:37:38;;;;;;;0.68;0.10;;;;;;;21.90;57.01;97156.00;10460363;28;20121;-71
2023/10/14 12:43:01;;;;;;;0.30;0.10;;;;;;;22.31;55.20;97167.94;10445334;28;20535;-71
2023/10/14 12:48:24;;;;;;;;;;;;;;;22.63;52.64;97166.88;10459960;28;20119;-72
2023/10/14 12:53:45;;;;;;;0.08;0.00;;;;;;;22.85;52.51;97175.69;10458964;28;20015;-71
2023/10/14 12:59:12;;;;;;;1.20;0.50;;;;;;;22.62;51.61;97171.84;10458521;28;20065;-71
2023/10/14 13:04:34;;;;;;;1.55;0.10;;;;;;;21.82;52.05;97167.28;10459124;28;20461;-72
2023/10/14 13:09:54;;;;;;;0.20;0.03;;;;;;;20.90;52.91;97179.25;10444008;28;20452;-71
2023/10/14 13:15:26;;;;;;;1.02;0.03;;;;;;;20.36;53.43;97171.09;10458867;28;20076;-71
2023/10/14 13:20:47;;;;;;;0.43;0.13;;;;;;;20.05;54.08;97178.25;10432167;28;20178;-71
2023/10/14 13:26:10;;;;;;;0.57;0.05;;;;;;;19.49;54.52;97178.38;10457405;28;20437;-71
2023/10/14 13:31:31;;;;;;;0.82;0.10;;;;;;;19.26;54.72;97184.91;10443377;28;20084;-71
2023/10/14 13:36:52;;;;;;;0.47;0.10;;;;;;;19.04;55.08;97208.41;10457987;28;20036;-71
2023/10/14 13:42:18;;;;;;;1.08;0.20;;;;;;;18.78;54.93;97213.38;10456986;28;20124;-71
2023/10/14 13:47:41;;;;;;;0.93;0.28;;;;;;;18.18;56.80;97218.72;10429366;28;20121;-71
2023/10/14 13:53:18;;;;;;;1.05;0.20;;;;;;;17.86;57.82;97210.75;10443413;28;20064;-71
2023/10/14 13:58:39;;;;;;;0.77;0.10;;;;;;;17.81;58.74;97209.16;10444124;28;20491;-71
2023/10/14 14:04:01;;;;;;;2.50;0.10;;;;;;;17.92;59.06;97233.50;10457007;28;20562;-71
2023/10/14 14:09:22;;;;;;;0.55;0.20;;;;;;;17.87;59.59;97225.56;10457080;28;20116;-70
2023/10/14 14:14:45;;;;;;;0.95;0.22;;;;;;;17.78;58.82;97230.25;10456746;28;20419;-71
2023/10/14 14:20:07;;;;;;;1.20;0.20;;;;;;;17.07;60.18;97216.63;10456519;28;20120;-70
2023/10/14 14:25:28;;;;;;;2.75;1.02;;;;;;;16.61;62.24;97199.53;10441755;28;20064;-71
2023/10/14 14:30:49;;;;;;;4.78;1.33;;;;;;;16.24;62.90;97181.31;10441491;28;20055;-70
2023/10/14 14:36:11;;;;;;;1.80;0.60;;;;;;;15.97;63.89;97199.31;10456343;28;20147;-70
2023/10/14 14:41:31;;;;;;;2.13;0.50;;;;;;;15.71;65.04;97218.00;10440977;28;20065;-70
2023/10/14 14:46:52;;;;;;;3.63;0.60;;;;;;;15.50;66.13;97227.72;10454938;28;20113;-70
2023/10/14 14:52:13;;;;;;;2.90;0.60;;;;;;;15.37;67.96;97223.69;10441141;28;20494;-69
2023/10/14 14:57:38;;;;;;;1.20;0.50;;;;;;;15.41;67.41;97242.81;10441011;28;20051;-71
2023/10/14 15:03:00;;;;;;;3.15;0.75;;;;;;;15.27;68.62;97245.06;10441402;28;20511;-70
2023/10/14 15:08:23;;;;;;;2.08;0.68;;;;;;;15.18;68.10;97249.63;10457569;28;20045;-70
2023/10/14 15:13:44;;;;;;;4.70;0.67;;;;;;;15.10;69.54;97255.63;10464009;28;20119;-70
2023/10/14 15:19:07;;;;;;;1.40;0.63;;;;;;;15.09;69.25;97256.97;10448602;28;20044;-70
2023/10/14 15:24:30;;;;;;;1.55;0.60;;;;;;;15.16;70.54;97264.31;10449148;28;20484;-70
2023/10/14 15:29:50;;;;;;;1.73;0.50;;;;;;;15.26;70.88;97280.16;10448626;28;20072;-70
2023/10/14 15:35:14;;;;;;;1.80;0.52;;;;;;;15.32;70.81;97280.41;10463320;28;20539;-70
2023/10/14 15:40:35;;;;;;;1.58;0.57;;;;;;;15.30;70.59;97261.34;10435183;28;20052;-71
2023/10/14 15:46:01;;;;;;;1.38;0.57;;;;;;;15.16;70.55;97267.13;10462658;28;20116;-71
2023/10/14 15:51:23;;;;;;;1.33;0.55;;;;;;;15.08;70.23;97246.38;10447992;28;20075;-71
2023/10/14 15:56:44;;;;;;;2.38;0.68;;;;;;;15.00;70.92;97272.06;10447657;28;20573;-70
2023/10/14 16:02:04;;;;;;;2.17;0.90;;;;;;;15.00;71.43;97254.47;10460791;28;20045;-70
2023/10/14 16:07:27;;;;;;;1.80;0.82;;;;;;;15.04;71.36;97271.50;10419580;28;20097;-70
2023/10/14 16:12:48;;;;;;;1.98;0.60;;;;;;;15.02;71.47;97263.69;10420456;28;20056;-70
2023/10/14 16:18:08;;;;;;;1.60;0.65;;;;;;;14.97;71.65;97278.97;10404815;28;20076;-70
2023/10/14 16:23:29;;;;;;;2.75;0.80;;;;;;;14.94;71.46;97280.22;10419819;28;20448;-69
2023/10/14 16:28:52;;;;;;;2.92;1.27;;;;;;;14.85;71.57;97286.84;10418970;28;20053;-70
2023/10/14 16:34:14;;;;;;;4.78;2.05;;;;;;;14.86;71.77;97288.28;10418914;28;20073;-70
2023/10/14 16:39:35;;;;;;;3.90;1.50;;;;;;;14.89;72.76;97303.91;10418230;28;20499;-71
2023/10/14 16:44:56;;;;;;;5.68;1.42;;;;;;;14.89;72.13;97309.53;10418346;28;20125;-70
2023/10/14 16:50:18;;;;;;;4.35;1.90;;;;;;;14.90;72.19;97322.19;10417871;28;20049;-70
2023/10/14 16:55:39;;;;;;;2.97;1.77;;;;;;;14.90;72.04;97336.25;10404207;28;20096;-70
2023/10/14 17:01:00;;;;;;;2.97;0.98;;;;;;;14.87;71.83;97317.88;10417595;28;20053;-70
2023/10/14 17:06:21;;;;;;;2.22;0.77;;;;;;;14.71;71.76;97329.09;10417249;28;20081;-70
2023/10/14 17:11:42;;;;;;;3.00;1.10;;;;;;;14.60;71.81;97325.13;10404321;28;20069;-71
2023/10/14 17:17:06;;;;;;;2.70;0.95;;;;;;;14.53;71.73;97328.28;10421148;28;20048;-76
2023/10/14 17:22:29;;;;;;;5.90;1.70;;;;;;;14.39;71.69;97353.59;10409074;28;20052;-71
2023/10/14 17:27:50;;;;;;;4.10;1.20;;;;;;;14.31;71.40;97361.66;10403914;28;20077;-70
2023/10/14 17:33:12;;;;;;;4.45;1.40;;;;;;;14.23;71.65;97373.22;10388343;28;20472;-70
2023/10/14 17:38:33;;;;;;;4.53;1.60;;;;;;;14.20;71.44;97376.56;10416903;28;20148;-70
2023/10/14 17:43:54;;;;;;;6.68;1.60;;;;;;;14.14;71.60;97379.06;10416893;28;20045;-70
2023/10/14 17:49:15;;;;;;;7.05;1.05;;;;;;;14.11;70.62;97383.16;10416713;28;20045;-69
2023/10/14 17:54:36;;;;;;;6.13;1.42;;;;;;;13.96;70.92;97393.66;10416287;28;20499;-70
2023/10/14 17:59:56;;;;;;;6.00;1.55;;;;;;;13.97;71.01;97392.31;10401678;28;20124;-70
2023/10/14 18:05:18;;;;;;;4.28;1.50;;;;;;;13.97;70.92;97400.72;10400723;28;20064;-70
2023/10/14 18:10:39;;;;;;;4.50;1.30;;;;;;;13.92;70.41;97401.19;10387811;28;20490;-70
2023/10/14 18:16:00;;;;;;;5.38;1.42;;;;;;;13.93;70.06;97431.41;10387455;28;20089;-70
2023/10/14 18:21:21;;;;;;;3.40;1.17;;;;;;;13.87;70.01;97422.69;10386966;28;20117;-70
2023/10/14 18:26:43;;;;;;;6.43;1.55;;;;;;;13.87;70.16;97430.38;10416730;28;20206;-70
2023/10/14 18:32:04;;;;;;;11.40;3.67;;;;;;;13.79;69.83;97439.09;10414585;28;20172;-70
2023/10/14 18:37:26;;;;;;;13.13;4.35;;;;;;;13.74;69.55;97448.69;10414243;28;20119;-71
2023/10/14 18:42:48;;;;;;;13.60;3.25;;;;;;;13.68;69.51;97459.59;10413209;28;20420;-70
2023/10/14 18:48:09;;;;;;;10.73;3.25;;;;;;;13.56;69.35;97473.72;10400390;28;20472;-69
2023/10/14 18:53:30;;;;;;;10.40;2.83;;;;;;;13.48;69.65;97472.56;10399735;28;20069;-70
2023/10/14 18:58:54;;;;;;;10.63;2.25;;;;;;;13.45;69.35;97486.50;10386182;28;20052;-70
2023/10/14 19:04:16;;;;;;;9.18;2.00;;;;;;;13.43;69.08;97500.41;10386734;28;20099;-70
2023/10/14 19:09:37;;;;;;;7.40;1.88;;;;;;;13.33;68.84;97485.88;10399816;28;20488;-70
2023/10/14 19:14:59;;;;;;;6.97;2.05;;;;;;;13.17;68.48;97490.56;10399892;28;20069;-70
2023/10/14 19:20:22;;;;;;;8.55;1.95;;;;;;;13.06;68.59;97499.78;10386069;28;20068;-71
2023/10/14 19:25:49;;;;;;;5.20;1.40;;;;;;;13.03;68.17;97503.84;10427012;28;20123;-69
2023/10/14 19:31:12;;;;;;;5.63;1.50;;;;;;;12.86;67.87;97511.34;10455297;28;20052;-70
2023/10/14 19:36:33;;;;;;;6.67;1.80;;;;;;;12.67;67.31;97494.91;10440386;28;20398;-70
2023/10/14 19:41:54;;;;;;;5.07;0.98;;;;;;;12.51;67.83;97513.56;10455236;28;20341;-70
2023/10/14 19:47:15;;;;;;;4.10;1.20;;;;;;;12.42;67.68;97522.88;10440121;28;20045;-70
2023/10/14 19:52:39;;;;;;;5.68;1.10;;;;;;;12.37;67.55;97526.78;10454022;28;20533;-70
2023/10/14 19:58:03;;;;;;;;;;;;;;;12.40;67.19;97542.34;10448095;28;20407;-70
2023/10/14 20:03:24;;;;;;;;;;;;;;;12.43;66.77;97552.31;10461393;28;19931;-70
2023/10/14 20:08:46;;;;;;;6.10;1.60;;;;;;;12.45;67.16;97563.63;10447151;28;19921;-70
2023/10/14 20:14:11;;;;;;;6.75;1.13;;;;;;;12.49;66.98;97572.25;10447032;28;20483;-70
2023/10/14 20:19:33;;;;;;;4.43;1.30;;;;;;;12.54;66.42;97576.72;10461676;28;20069;-70
2023/10/14 20:24:54;;;;;;;2.55;0.90;;;;;;;12.55;66.49;97578.22;10446275;28;20120;-70
2023/10/14 20:30:15;;;;;;;5.45;1.40;;;;;;;12.47;66.38;97586.88;10446388;28;20080;-70
2023/10/14 20:35:39;;;;;;;6.55;1.30;;;;;;;12.21;66.23;97583.28;10432149;28;20098;-70
2023/10/14 20:41:05;;;;;;;4.68;1.05;;;;;;;11.94;66.44;97594.25;10446264;28;20072;-70
2023/10/14 20:46:27;;;;;;;6.70;1.60;;;;;;;11.66;66.65;97596.75;10459506;28;20045;-70
2023/10/14 20:51:48;;;;;;;5.93;1.50;;;;;;;11.39;66.84;97597.22;10459281;28;20071;-70
2023/10/14 20:57:09;;;;;;;4.47;1.42;;;;;;;11.14;67.09;97608.94;10459181;28;20138;-70
2023/10/14 21:02:29;;;;;;;6.15;1.40;;;;;;;10.96;67.15;97609.84;10431033;28;20040;-70
2023/10/14 21:07:50;;;;;;;7.97;1.98;;;;;;;10.78;66.81;97618.50;10430215;28;20049;-70
2023/10/14 21:13:12;;;;;;;6.97;1.52;;;;;;;10.65;66.98;97621.13;10459358;28;20055;-70
2023/10/14 21:18:32;;;;;;;9.15;1.75;;;;;;;10.50;67.31;97622.97;10430724;28;20072;-72
2023/10/14 21:23:54;;;;;;;8.60;1.42;;;;;;;10.38;66.94;97632.63;10430668;28;20061;-72
2023/10/14 21:29:18;;;;;;;5.75;1.35;;;;;;;10.23;67.23;97628.91;10444133;28;20072;-72
2023/10/14 21:34:40;;;;;;;4.90;1.42;;;;;;;10.14;67.33;97626.88;10444368;28;20044;-71
2023/10/14 21:40:01;;;;;;;6.18;1.42;;;;;;;10.11;67.41;97624.53;10443433;28;20391;-71
2023/10/14 21:45:24;;;;;;;5.22;1.00;;;;;;;10.06;67.21;97631.91;10443205;28;20483;-72
2023/10/14 21:50:45;;;;;;;6.47;0.90;;;;;;;10.03;66.98;97636.59;10456989;28;20049;-72
2023/10/14 21:56:06;;;;;;;4.03;0.63;;;;;;;9.96;66.83;97645.88;10457869;28;20048;-71
2023/10/14 22:01:27;;;;;;;4.53;1.10;;;;;;;9.95;66.63;97638.84;10442607;28;20075;-71
2023/10/14 22:06:49;;;;;;;3.80;1.27;;;;;;;9.97;66.52;97641.03;10442259;28;20384;-72
2023/10/14 22:12:10;;;;;;;4.13;0.80;;;;;;;9.94;65.88;97651.31;10456272;28;20479;-72
2023/10/14 22:17:31;;;;;;;5.90;1.10;;;;;;;9.95;66.48;97655.56;10442036;28;20537;-72
2023/10/14 22:22:52;;;;;;;5.65;1.25;;;;;;;9.88;65.96;97662.06;10455673;28;20476;-72
2023/10/14 22:28:15;;;;;;;7.18;1.35;;;;;;;9.83;65.68;97660.28;10455497;28;20045;-72
2023/10/14 22:33:37;;;;;;;8.43;0.85;;;;;;;9.74;66.27;97675.00;10441848;28;20045;-72
2023/10/14 22:38:59;;;;;;;7.47;0.90;;;;;;;9.64;65.68;97677.81;10441578;28;20049;-72
2023/10/14 22:44:23;;;;;;;4.57;1.08;;;;;;;9.64;65.32;97685.44;10441609;28;20049;-72
2023/10/14 22:49:44;;;;;;;7.03;1.20;;;;;;;9.53;65.04;97688.84;10457090;28;20045;-72
2023/10/14 22:55:07;;;;;;;3.63;0.90;;;;;;;9.49;65.26;97683.00;10430173;28;20041;-72
2023/10/14 23:00:29;;;;;;;3.78;0.70;;;;;;;9.45;64.72;97683.44;10435910;28;20068;-76
2023/10/14 23:06:19;;;;;;;7.32;1.02;;;;;;;9.38;64.71;97689.91;10361169;28;20162;-72
2023/10/14 23:11:41;;;;;;;5.10;0.80;;;;;;;9.31;64.41;97682.44;10359456;28;20482;-71
2023/10/14 23:17:03;;;;;;;4.65;0.70;;;;;;;9.24;63.94;97689.63;10345754;28;20049;-72
2023/10/14 23:22:24;;;;;;;2.92;0.52;;;;;;;9.21;63.60;97685.22;10359160;28;20046;-72
2023/10/14 23:27:45;;;;;;;4.38;1.48;;;;;;;9.15;64.04;97676.44;10372951;28;20045;-72
2023/10/14 23:33:07;;;;;;;3.65;0.50;;;;;;;9.07;63.73;97690.53;10353230;28;20472;-71
2023/10/14 23:38:28;;;;;;;6.15;0.95;;;;;;;8.99;63.59;97689.94;10353240;28;20492;-71
2023/10/14 23:43:49;;;;;;;3.67;0.57;;;;;;;8.91;64.04;97694.19;10352632;28;20533;-72
2023/10/14 23:49:10;;;;;;;4.25;0.50;;;;;;;8.79;63.67;97703.09;10366395;28;20041;-72
2023/10/14 23:54:33;;;;;;;5.38;0.60;;;;;;;8.70;63.65;97701.03;10352209;28;20391;-72
2023/10/14 23:59:54;;;;;;;5.55;0.60;;;;;;;8.63;63.88;97699.13;10380950;28;20042;-73
